Time;durP1;ratioP1;P1;durP2;ratioP2;P2;SDS_P1;SDS_P2;PMS_P1;PMS_P2;Temp;Humidity;BMP_temperature;BMP_pressure;BME280_temperature;BME280_humidity;BME280_pressure;Samples;Min_cycle;Max_cycle;Signal;HPM_P1;HPM_P2
2022/03/21 00:00:51;;;;;;;11.30;8.13;;;;;;;6.14;56.09;97848.78;5065056;28;20211;-50
2022/03/21 00:03:20;;;;;;;9.87;7.87;;;;;;;6.10;56.04;97850.75;5065344;28;20217;-50
2022/03/21 00:05:47;;;;;;;11.93;7.97;;;;;;;6.09;56.19;97853.47;5067127;28;20206;-51
2022/03/21 00:08:17;;;;;;;9.97;8.13;;;;;;;6.06;56.29;97854.47;5066907;28;20230;-51
2022/03/21 00:10:46;;;;;;;8.03;7.23;;;;;;;6.07;55.64;97860.56;5073908;28;20631;-52
2022/03/21 00:13:15;;;;;;;9.40;7.13;;;;;;;6.04;55.25;97858.13;5073887;28;20199;-52
2022/03/21 00:15:44;;;;;;;9.27;7.17;;;;;;;6.04;56.20;97858.13;5074362;28;20207;-50
2022/03/21 00:18:14;;;;;;;7.77;6.70;;;;;;;5.94;56.83;97861.25;5075611;28;20598;-52
2022/03/21 00:20:42;;;;;;;9.57;7.40;;;;;;;5.86;57.12;97868.72;5072476;28;20235;-51
2022/03/21 00:23:09;;;;;;;8.13;6.67;;;;;;;5.82;56.02;97864.53;5070723;28;20239;-53
2022/03/21 00:25:36;;;;;;;8.03;7.23;;;;;;;5.76;56.01;97866.63;5070409;28;20589;-51
2022/03/21 00:28:06;;;;;;;10.70;9.60;;;;;;;5.76;55.72;97864.88;5071633;28;20224;-53
2022/03/21 00:30:34;;;;;;;12.63;9.10;;;;;;;5.80;55.58;97869.03;5064090;28;20234;-50
2022/03/21 00:33:01;;;;;;;11.53;9.00;;;;;;;5.78;55.92;97876.13;5064458;28;20561;-52
2022/03/21 00:35:30;;;;;;;11.20;8.67;;;;;;;5.66;56.39;97876.78;5064315;28;20206;-51
2022/03/21 00:37:59;;;;;;;8.17;5.90;;;;;;;5.63;56.06;97874.34;5063961;28;20207;-50
2022/03/21 00:40:26;;;;;;;6.90;6.17;;;;;;;5.63;56.24;97865.63;5064573;28;20529;-50
2022/03/21 00:42:52;;;;;;;6.67;6.07;;;;;;;5.63;56.69;97865.63;5064911;28;20203;-49
2022/03/21 00:45:23;;;;;;;6.07;5.47;;;;;;;5.66;56.33;97871.53;5064606;28;20214;-50
2022/03/21 00:47:50;;;;;;;7.23;5.60;;;;;;;5.63;56.66;97866.47;5065091;28;20206;-50
2022/03/21 00:50:19;;;;;;;7.37;6.63;;;;;;;5.68;55.81;97869.69;5065794;28;20214;-51
2022/03/21 00:52:47;;;;;;;6.90;6.20;;;;;;;5.69;55.82;97871.38;5064009;28;20222;-50
2022/03/21 00:55:14;;;;;;;8.20;7.20;;;;;;;5.63;55.76;97863.84;5064730;28;20590;-50
2022/03/21 00:57:42;;;;;;;9.00;7.97;;;;;;;5.59;56.55;97864.09;5066179;28;20203;-51
2022/03/21 01:00:13;;;;;;;12.33;7.80;;;;;;;5.47;58.02;97862.97;5068126;28;20204;-50
2022/03/21 01:02:41;;;;;;;8.90;8.00;;;;;;;5.33;57.92;97874.19;5067948;28;20225;-50
2022/03/21 01:05:11;;;;;;;10.87;8.00;;;;;;;5.39;58.16;97879.09;5086688;28;20209;-51
2022/03/21 01:07:38;;;;;;;7.80;7.00;;;;;;;5.35;58.12;97882.81;5081637;28;20214;-51
2022/03/21 01:10:09;;;;;;;8.00;7.20;;;;;;;5.35;58.12;97876.75;5076389;28;20215;-51
2022/03/21 01:12:36;;;;;;;7.30;6.60;;;;;;;5.28;57.79;97883.25;5075676;28;20212;-53
2022/03/21 01:15:03;;;;;;;7.63;6.93;;;;;;;5.29;57.09;97879.66;5064628;28;20194;-51
2022/03/21 01:17:31;;;;;;;7.07;5.90;;;;;;;5.27;56.45;97873.66;5064754;28;20207;-51
2022/03/21 01:20:04;;;;;;;7.17;5.47;;;;;;;5.30;56.34;97876.13;5064031;28;20205;-51
2022/03/21 01:22:33;;;;;;;8.47;6.07;;;;;;;5.25;56.28;97880.75;5064999;28;20230;-52
2022/03/21 01:25:00;;;;;;;6.53;5.93;;;;;;;5.22;56.99;97881.75;5082961;28;20641;-51
2022/03/21 01:27:29;;;;;;;7.97;7.17;;;;;;;5.23;57.59;97882.63;5081595;28;20233;-52
2022/03/21 01:29:57;;;;;;;7.27;6.57;;;;;;;5.18;57.69;97884.63;5086149;28;20201;-52
2022/03/21 01:32:24;;;;;;;7.67;6.83;;;;;;;5.21;58.23;97884.50;5077091;28;20199;-51
2022/03/21 01:34:50;;;;;;;7.20;6.57;;;;;;;5.16;58.25;97882.09;5069739;28;20199;-52
2022/03/21 01:37:18;;;;;;;7.90;6.43;;;;;;;5.14;58.37;97886.56;5065774;28;20340;-50
2022/03/21 01:39:45;;;;;;;7.30;6.60;;;;;;;5.13;59.04;97886.66;5063884;28;20202;-50
2022/03/21 01:42:14;;;;;;;8.30;6.20;;;;;;;5.16;58.06;97881.25;5070512;28;20636;-52
2022/03/21 01:44:43;;;;;;;7.10;5.83;;;;;;;5.14;58.82;97878.69;5071118;28;20211;-51
2022/03/21 01:47:10;;;;;;;7.17;6.47;;;;;;;5.16;59.43;97879.47;5073973;28;20280;-51
2022/03/21 01:49:36;;;;;;;6.83;6.17;;;;;;;5.21;58.92;97884.50;5080299;28;20214;-51
2022/03/21 01:52:03;;;;;;;8.13;6.77;;;;;;;5.19;58.93;97875.84;5075372;28;20211;-51
2022/03/21 01:57:17;;;;;;;8.17;7.33;;;;;;;5.16;58.90;97881.25;5085849;28;20196;-52
2022/03/21 01:59:46;;;;;;;9.67;7.73;;;;;;;5.09;58.89;97880.72;5085764;28;20195;-51
2022/03/21 02:02:13;;;;;;;9.90;8.03;;;;;;;4.97;60.23;97882.19;5085209;28;20197;-51
2022/03/21 02:04:42;;;;;;;8.97;8.07;;;;;;;4.99;60.36;97884.75;5084826;28;20186;-51
2022/03/21 02:07:08;;;;;;;9.03;7.47;;;;;;;4.94;59.39;97882.34;5085144;28;20213;-51
2022/03/21 02:09:38;;;;;;;7.53;6.83;;;;;;;4.93;59.40;97880.66;5084489;28;20190;-52
2022/03/21 02:12:12;;;;;;;9.30;7.17;;;;;;;4.87;59.43;97875.72;5090123;28;20178;-50
2022/03/21 02:14:39;;;;;;;9.50;6.83;;;;;;;4.85;59.17;97874.94;5085020;28;20300;-51
2022/03/21 02:17:06;;;;;;;9.53;6.90;;;;;;;4.81;59.56;97876.03;5063422;28;20262;-50
2022/03/21 02:19:34;;;;;;;7.03;5.93;;;;;;;4.81;59.13;97869.94;5063277;28;20194;-52
2022/03/21 02:22:11;;;;;;;6.13;5.57;;;;;;;4.79;59.61;97866.53;5063411;28;20218;-51
2022/03/21 02:24:46;;;;;;;7.47;6.43;;;;;;;4.78;59.67;97870.94;5062235;28;20336;-50
2022/03/21 02:27:16;;;;;;;7.17;6.50;;;;;;;4.85;59.44;97867.06;5070597;28;20218;-51
2022/03/21 02:29:44;;;;;;;7.03;6.33;;;;;;;4.82;59.82;97872.47;5084881;28;20195;-51
2022/03/21 02:32:10;;;;;;;8.30;6.93;;;;;;;4.82;59.82;97874.25;5075405;28;20199;-51
2022/03/21 02:34:41;;;;;;;9.77;6.60;;;;;;;4.85;59.50;97868.88;5064901;28;20190;-52
2022/03/21 02:37:09;;;;;;;9.03;6.93;;;;;;;4.87;59.94;97867.00;5065499;28;20195;-50
2022/03/21 02:39:36;;;;;;;7.80;7.00;;;;;;;4.79;60.57;97870.00;5065040;28;20199;-53
2022/03/21 02:42:05;;;;;;;8.30;6.60;;;;;;;4.76;60.11;97870.19;5064343;28;20199;-51
2022/03/21 02:44:37;;;;;;;7.87;6.73;;;;;;;4.76;60.03;97871.94;5072900;28;20223;-50
2022/03/21 02:47:06;;;;;;;8.20;6.53;;;;;;;4.68;60.64;97872.31;5069309;28;20191;-51
2022/03/21 02:49:34;;;;;;;6.90;6.30;;;;;;;4.63;60.85;97869.09;5048025;28;20219;-50
2022/03/21 02:52:01;;;;;;;7.73;6.90;;;;;;;4.59;61.42;97864.94;5043453;28;20200;-50
2022/03/21 02:54:29;;;;;;;7.83;6.97;;;;;;;4.61;61.41;97876.19;5042811;28;20218;-52
2022/03/21 02:56:57;;;;;;;8.47;6.80;;;;;;;4.58;61.15;97878.09;5042038;28;20215;-51
2022/03/21 02:59:25;;;;;;;6.83;6.23;;;;;;;4.55;61.06;97878.25;5042312;28;20200;-52
2022/03/21 03:01:54;;;;;;;7.93;6.60;;;;;;;4.45;62.41;97883.09;5042269;28;20563;-50
2022/03/21 03:04:21;;;;;;;7.63;6.60;;;;;;;4.48;62.93;97882.97;5041866;28;20249;-51
2022/03/21 03:06:48;;;;;;;7.67;6.87;;;;;;;4.38;64.23;97879.09;5045274;28;20664;-51
2022/03/21 03:09:15;;;;;;;7.57;6.87;;;;;;;4.45;62.18;97877.88;5045537;28;20231;-51
2022/03/21 03:11:44;;;;;;;7.37;6.37;;;;;;;4.45;61.78;97883.09;5045966;28;20196;-49
2022/03/21 03:14:10;;;;;;;8.43;6.50;;;;;;;4.28;63.34;97889.19;5045746;28;20207;-50
2022/03/21 03:16:37;;;;;;;7.80;7.00;;;;;;;4.34;62.58;97886.25;5045547;28;20204;-52
2022/03/21 03:19:09;;;;;;;7.57;6.83;;;;;;;4.24;64.19;97892.00;5046477;28;20200;-52
2022/03/21 03:21:38;;;;;;;7.50;6.50;;;;;;;4.27;63.52;97884.00;5044914;28;20207;-51
2022/03/21 03:24:05;;;;;;;9.47;7.03;;;;;;;4.23;63.80;97887.69;5045146;28;20257;-52
2022/03/21 03:26:32;;;;;;;8.43;6.70;;;;;;;4.25;63.05;97885.88;5045340;28;20214;-52
2022/03/21 03:29:00;;;;;;;6.63;6.03;;;;;;;4.17;63.12;97888.00;5045734;28;20251;-51
2022/03/21 03:31:29;;;;;;;6.73;6.10;;;;;;;4.18;63.46;97892.31;5045601;28;20215;-52
2022/03/21 03:33:58;;;;;;;6.80;6.20;;;;;;;4.22;62.85;97889.44;5044950;28;20203;-51
2022/03/21 03:36:28;;;;;;;6.63;5.97;;;;;;;4.21;62.56;97900.03;5045270;28;20233;-52
2022/03/21 03:38:54;;;;;;;7.00;6.30;;;;;;;4.05;63.49;97894.66;5044951;28;20204;-51
2022/03/21 03:41:21;;;;;;;7.27;6.17;;;;;;;4.07;63.46;97905.06;5044980;28;20203;-51
2022/03/21 03:43:48;;;;;;;6.80;6.20;;;;;;;4.10;62.92;97897.91;5044194;28;20204;-50
2022/03/21 03:46:16;;;;;;;6.97;6.17;;;;;;;4.07;62.82;97897.22;5044907;28;20302;-52
2022/03/21 03:48:42;;;;;;;7.30;6.37;;;;;;;4.08;63.47;97899.72;5051554;28;20225;-52
2022/03/21 03:51:09;;;;;;;6.67;6.07;;;;;;;4.16;63.67;97896.75;5069712;28;20184;-51
2022/03/21 03:53:38;;;;;;;7.00;6.30;;;;;;;4.11;63.99;97898.75;5060411;28;20391;-50
2022/03/21 03:56:06;;;;;;;6.83;6.13;;;;;;;4.10;64.23;97902.28;5045337;28;20199;-52
2022/03/21 03:58:33;;;;;;;6.73;6.13;;;;;;;4.11;63.77;97904.81;5044916;28;20203;-50
2022/03/21 04:00:59;;;;;;;9.50;6.77;;;;;;;4.07;64.23;97907.69;5044696;28;20635;-52
2022/03/21 04:06:14;;;;;;;7.37;6.67;;;;;;;4.13;64.41;97917.84;5045318;28;20706;-52
2022/03/21 04:08:44;;;;;;;8.57;6.70;;;;;;;4.07;64.42;97915.53;5044868;28;20211;-52
2022/03/21 04:11:10;;;;;;;6.50;5.90;;;;;;;4.07;65.42;97926.84;5044982;28;20204;-51
2022/03/21 04:13:37;;;;;;;7.33;6.40;;;;;;;3.99;65.27;97916.75;5044869;28;20240;-51
2022/03/21 04:16:05;;;;;;;7.87;6.73;;;;;;;3.99;64.87;97921.13;5044315;28;20212;-51
2022/03/21 04:18:33;;;;;;;8.07;6.53;;;;;;;4.00;64.59;97922.81;5045239;28;20203;-50
2022/03/21 04:21:00;;;;;;;6.70;6.10;;;;;;;3.98;64.52;97925.50;5044821;28;20207;-52
2022/03/21 04:23:27;;;;;;;7.43;6.50;;;;;;;4.00;64.15;97917.59;5043820;28;20231;-50
2022/03/21 04:25:58;;;;;;;7.07;6.10;;;;;;;3.99;64.29;97921.97;5044452;28;20207;-52
2022/03/21 04:28:24;;;;;;;8.67;6.87;;;;;;;4.03;65.36;97929.69;5044348;28;20223;-51
2022/03/21 04:30:51;;;;;;;9.03;7.13;;;;;;;4.03;65.18;97927.91;5044823;28;20216;-51
2022/03/21 04:33:20;;;;;;;8.00;7.20;;;;;;;3.90;67.04;97927.63;5046345;28;20203;-51
2022/03/21 04:35:46;;;;;;;9.87;7.10;;;;;;;3.99;65.39;97928.97;5048220;28;20215;-52
2022/03/21 04:38:17;;;;;;;7.07;6.37;;;;;;;4.00;64.46;97928.06;5044756;28;20199;-50
2022/03/21 04:40:46;;;;;;;7.97;6.97;;;;;;;4.08;64.32;97925.06;5044413;28;20202;-52
2022/03/21 04:43:15;;;;;;;7.73;6.83;;;;;;;4.08;63.99;97932.91;5044208;28;20207;-52
2022/03/21 04:45:45;;;;;;;8.57;7.37;;;;;;;4.08;64.11;97927.69;5054872;28;20206;-52
2022/03/21 04:48:12;;;;;;;7.57;6.77;;;;;;;4.03;64.59;97927.06;5053698;28;20235;-51
2022/03/21 04:50:39;;;;;;;7.17;6.47;;;;;;;4.05;64.22;97919.97;5045839;28;20207;-50
2022/03/21 04:53:06;;;;;;;7.60;6.87;;;;;;;4.00;64.46;97921.03;5045384;28;20241;-50
2022/03/21 04:55:34;;;;;;;8.53;6.83;;;;;;;3.91;65.84;97926.72;5048597;28;20640;-52
2022/03/21 04:58:01;;;;;;;7.93;7.13;;;;;;;3.93;65.30;97932.72;5066941;28;20199;-52
2022/03/21 05:00:31;;;;;;;7.37;6.60;;;;;;;3.95;65.64;97936.13;5068640;28;20197;-50
2022/03/21 05:02:58;;;;;;;7.47;6.77;;;;;;;4.04;65.52;97939.25;5061364;28;20588;-50
2022/03/21 05:05:25;;;;;;;7.23;6.60;;;;;;;3.97;65.28;97934.25;5043829;28;20241;-49
2022/03/21 05:07:53;;;;;;;11.83;7.30;;;;;;;3.98;65.07;97938.59;5044103;28;20223;-51
2022/03/21 05:10:22;;;;;;;9.80;7.40;;;;;;;3.89;65.90;97951.25;5043298;28;20298;-51
2022/03/21 05:12:50;;;;;;;9.23;7.60;;;;;;;3.87;65.92;97948.69;5043483;28;20260;-51
2022/03/21 05:15:18;;;;;;;8.80;7.90;;;;;;;3.92;65.68;97949.34;5043240;28;20200;-50
2022/03/21 05:17:47;;;;;;;9.00;7.40;;;;;;;3.80;66.95;97955.13;5043579;28;20663;-49
2022/03/21 05:20:18;;;;;;;8.90;8.00;;;;;;;3.88;65.97;97966.09;5043630;28;20207;-51
2022/03/21 05:30:56;;;;;;;10.03;8.13;;;;;;;3.71;66.74;97968.63;5042255;28;20563;-51
2022/03/21 05:31:01;;;;;;;12.53;8.87;;;;;;;3.68;65.93;97963.56;5044304;28;20248;-52
2022/03/21 05:36:17;;;;;;;9.37;8.07;;;;;;;3.62;65.79;97958.56;5042956;28;20201;-50
2022/03/21 05:38:47;;;;;;;11.50;7.80;;;;;;;3.71;65.42;97968.63;5043475;28;20200;-52
2022/03/21 05:41:13;;;;;;;8.83;7.90;;;;;;;3.68;64.57;97966.16;5042982;28;20262;-52
2022/03/21 05:43:40;;;;;;;8.40;7.47;;;;;;;3.77;64.51;97972.72;5042179;28;20215;-52
2022/03/21 05:46:06;;;;;;;10.03;7.63;;;;;;;3.80;65.06;97975.22;5042631;28;20211;-51
2022/03/21 05:48:50;;;;;;;9.10;7.53;;;;;;;3.83;65.42;97986.38;5042916;28;20231;-52
2022/03/21 05:51:19;;;;;;;8.23;7.20;;;;;;;3.87;65.19;97993.19;5043516;28;20520;-52
2022/03/21 05:53:49;;;;;;;8.57;7.20;;;;;;;3.98;65.21;97993.56;5045532;28;20532;-50
2022/03/21 05:56:17;;;;;;;9.83;7.40;;;;;;;4.10;64.99;97996.53;5064110;28;20247;-52
2022/03/21 05:58:43;;;;;;;9.90;8.00;;;;;;;3.99;65.98;98002.25;5057223;28;20214;-50
2022/03/21 06:01:11;;;;;;;10.70;7.80;;;;;;;4.05;66.15;97998.50;5048001;28;20271;-51
2022/03/21 06:03:39;;;;;;;8.30;7.47;;;;;;;4.20;65.26;97997.81;5065028;28;20202;-52
2022/03/21 06:06:09;;;;;;;10.13;8.30;;;;;;;4.24;65.63;97999.38;5064213;28;20214;-52
2022/03/21 06:08:38;;;;;;;8.37;7.53;;;;;;;4.33;65.16;97998.91;5042501;28;20214;-50
2022/03/21 06:11:08;;;;;;;8.50;7.27;;;;;;;4.50;64.64;98007.69;5042805;28;20229;-53
2022/03/21 06:13:35;;;;;;;8.67;7.50;;;;;;;4.48;66.45;98013.94;5042860;28;20199;-51
2022/03/21 06:16:03;;;;;;;8.63;7.73;;;;;;;4.67;64.27;98013.91;5064093;28;20202;-52
2022/03/21 06:18:30;;;;;;;9.13;7.93;;;;;;;5.00;64.83;98007.88;5065724;28;20223;-52
2022/03/21 06:20:58;;;;;;;10.20;7.63;;;;;;;4.96;65.27;98011.56;5044527;28;20199;-51
2022/03/21 06:23:24;;;;;;;10.57;8.30;;;;;;;5.14;64.57;98008.94;5042033;28;20246;-51
2022/03/21 06:25:53;;;;;;;8.23;7.33;;;;;;;5.55;62.62;98007.72;5042713;28;20206;-50
2022/03/21 06:28:21;;;;;;;8.57;7.77;;;;;;;6.15;61.32;98008.06;5041132;28;20220;-50
2022/03/21 06:30:50;;;;;;;11.20;8.57;;;;;;;6.58;59.72;98015.31;5043460;28;20525;-53
2022/03/21 06:33:17;;;;;;;10.60;7.40;;;;;;;6.63;60.26;98017.66;5043190;28;20510;-50
2022/03/21 06:35:45;;;;;;;9.53;8.00;;;;;;;7.00;59.06;98012.91;5042724;28;20227;-52
2022/03/21 06:38:15;;;;;;;8.67;7.70;;;;;;;7.28;58.17;98019.19;5042940;28;20210;-50
2022/03/21 06:40:42;;;;;;;10.10;7.80;;;;;;;7.57;56.93;98023.59;5047160;28;20294;-52
2022/03/21 06:43:11;;;;;;;9.90;8.50;;;;;;;8.21;55.75;98024.97;5045761;28;20214;-52
2022/03/21 06:45:38;;;;;;;8.87;7.97;;;;;;;8.47;55.35;98026.84;5047087;28;20218;-52
2022/03/21 06:48:07;;;;;;;8.97;8.07;;;;;;;9.27;51.04;98021.63;5045917;28;20199;-51
2022/03/21 06:50:33;;;;;;;10.00;8.50;;;;;;;9.33;51.85;98029.13;5046411;28;20199;-52
2022/03/21 06:53:00;;;;;;;10.40;8.60;;;;;;;10.36;49.01;98027.34;5045803;28;20661;-51
2022/03/21 06:55:30;;;;;;;11.20;7.90;;;;;;;10.75;46.07;98023.66;5047373;28;20215;-51
2022/03/21 06:57:56;;;;;;;10.70;7.90;;;;;;;10.00;47.22;98025.41;5047147;28;20199;-51
2022/03/21 07:00:23;;;;;;;8.67;7.83;;;;;;;10.13;47.82;98035.16;5053584;28;20187;-53
2022/03/21 07:02:49;;;;;;;9.53;8.40;;;;;;;10.41;46.72;98032.31;5055403;28;20196;-55
2022/03/21 07:05:16;;;;;;;9.77;7.60;;;;;;;10.54;45.63;98034.91;5054371;28;20207;-53
2022/03/21 07:07:43;;;;;;;9.37;7.77;;;;;;;10.36;46.78;98037.91;5055327;28;20215;-58
2022/03/21 07:10:10;;;;;;;12.13;8.77;;;;;;;10.16;47.43;98041.09;5051339;28;20223;-53
2022/03/21 07:12:39;;;;;;;11.50;8.70;;;;;;;10.15;47.48;98039.41;5051471;28;20651;-52
2022/03/21 07:15:07;;;;;;;10.87;9.13;;;;;;;9.67;49.20;98037.47;5051125;28;20668;-53
2022/03/21 07:17:34;;;;;;;13.10;9.03;;;;;;;9.44;48.83;98045.13;5052061;28;20210;-51
2022/03/21 07:20:01;;;;;;;12.10;9.20;;;;;;;9.17;50.69;98049.56;5046049;28;20192;-53
2022/03/21 07:22:28;;;;;;;11.60;9.70;;;;;;;9.38;50.16;98053.44;5046782;28;20222;-51
2022/03/21 07:24:56;;;;;;;10.87;9.73;;;;;;;9.18;50.06;98045.13;5045386;28;20543;-51
2022/03/21 07:27:22;;;;;;;12.57;9.70;;;;;;;9.29;50.55;98048.75;5045939;28;20293;-51
2022/03/21 07:29:53;;;;;;;10.73;9.63;;;;;;;9.14;50.09;98055.03;5045427;28;20219;-51
2022/03/21 07:32:19;;;;;;;11.73;10.00;;;;;;;9.00;48.99;98057.72;5045148;28;20207;-52
2022/03/21 07:34:46;;;;;;;11.73;9.20;;;;;;;9.05;50.73;98060.06;5045847;28;20281;-51
2022/03/21 07:37:13;;;;;;;12.63;10.07;;;;;;;8.90;50.82;98057.47;5045828;28;20203;-53
2022/03/21 07:39:39;;;;;;;11.93;9.57;;;;;;;8.95;50.58;98060.69;5045281;28;20202;-52
2022/03/21 07:42:12;;;;;;;13.57;10.43;;;;;;;9.05;50.69;98060.91;5044645;28;20675;-52
2022/03/21 07:47:25;;;;;;;10.83;9.73;;;;;;;9.09;51.13;98062.41;5045102;28;20199;-50
2022/03/21 07:49:55;;;;;;;11.70;9.60;;;;;;;9.18;51.80;98064.44;5045346;28;20273;-52
2022/03/21 07:52:22;;;;;;;12.20;10.00;;;;;;;9.27;49.88;98063.00;5044201;28;20214;-53
2022/03/21 07:54:51;;;;;;;11.67;10.20;;;;;;;9.34;49.30;98062.50;5044525;28;20199;-51
2022/03/21 07:57:19;;;;;;;14.30;9.90;;;;;;;9.45;49.58;98053.88;5045379;28;20202;-52
2022/03/21 07:59:46;;;;;;;11.57;9.17;;;;;;;9.47;49.76;98058.09;5045725;28;20188;-52
2022/03/21 08:02:13;;;;;;;14.37;9.47;;;;;;;9.53;49.74;98046.28;5044968;28;20204;-52
2022/03/21 08:04:41;;;;;;;11.50;9.57;;;;;;;9.63;48.52;98054.44;5045586;28;20200;-53
2022/03/21 08:07:08;;;;;;;10.73;9.23;;;;;;;9.84;48.96;98053.84;5043553;28;20639;-52
2022/03/21 08:09:36;;;;;;;11.23;10.07;;;;;;;9.70;47.68;98053.94;5044671;28;20226;-51
2022/03/21 08:12:03;;;;;;;10.13;9.10;;;;;;;9.84;47.67;98056.50;5042573;28;20250;-53
2022/03/21 08:14:31;;;;;;;9.63;8.43;;;;;;;9.80;46.25;98054.16;5044885;28;20627;-52
2022/03/21 08:17:00;;;;;;;11.47;9.27;;;;;;;9.83;46.16;98054.81;5044014;28;20219;-51
2022/03/21 08:19:27;;;;;;;11.07;9.87;;;;;;;9.72;45.80;98052.03;5044990;28;20254;-52
2022/03/21 08:21:55;;;;;;;12.07;9.20;;;;;;;9.91;46.29;98051.63;5044838;28;21338;-52
2022/03/21 08:24:22;;;;;;;10.57;8.87;;;;;;;10.09;45.54;98046.88;5043870;28;20244;-51
2022/03/21 08:26:51;;;;;;;10.93;9.17;;;;;;;10.11;46.23;98037.03;5043162;28;20230;-51
2022/03/21 08:29:17;;;;;;;18.47;9.80;;;;;;;10.09;46.27;98034.53;5046332;28;20235;-50
2022/03/21 08:31:47;;;;;;;10.93;9.73;;;;;;;10.27;46.88;98038.53;5044486;28;20207;-52
2022/03/21 08:34:14;;;;;;;13.73;10.03;;;;;;;10.27;44.85;98037.72;5044801;28;20276;-52
2022/03/21 08:36:41;;;;;;;12.43;9.70;;;;;;;10.35;46.18;98030.06;5044385;28;20203;-51
2022/03/21 08:39:10;;;;;;;11.67;9.00;;;;;;;10.35;45.14;98040.66;5044670;28;20233;-51
2022/03/21 08:41:37;;;;;;;10.27;9.17;;;;;;;10.37;43.94;98033.47;5045324;28;20286;-52
2022/03/21 08:44:04;;;;;;;11.80;9.80;;;;;;;10.39;45.23;98035.03;5069515;28;20191;-55
2022/03/21 08:46:31;;;;;;;12.03;9.20;;;;;;;10.62;43.83;98044.00;5068666;28;20214;-52
2022/03/21 08:51:43;;;;;;;10.20;9.13;;;;;;;10.74;42.63;98036.97;5043821;28;20207;-52
2022/03/21 08:54:13;;;;;;;10.37;9.13;;;;;;;10.87;41.72;98036.00;5043467;28;20207;-52
2022/03/21 08:56:40;;;;;;;11.70;9.07;;;;;;;11.07;41.41;98028.41;5044166;28;20199;-52
2022/03/21 08:59:07;;;;;;;10.07;8.83;;;;;;;11.35;41.01;98031.56;5043980;28;20199;-51
2022/03/21 09:01:34;;;;;;;11.50;8.87;;;;;;;11.53;38.97;98031.97;5044808;28;20191;-51
2022/03/21 09:04:02;;;;;;;11.70;8.70;;;;;;;11.98;40.21;98036.47;5042625;28;20251;-52
2022/03/21 09:06:31;;;;;;;14.23;9.43;;;;;;;12.30;39.49;98033.97;5044228;28;20241;-51
2022/03/21 09:08:58;;;;;;;11.27;8.53;;;;;;;12.63;38.27;98029.63;5043400;28;20223;-52
2022/03/21 09:11:27;;;;;;;10.57;8.60;;;;;;;13.09;38.22;98026.78;5046762;28;20215;-54
2022/03/21 09:13:54;;;;;;;9.93;8.93;;;;;;;13.28;36.02;98027.84;5047545;28;20203;-52
2022/03/21 09:16:21;;;;;;;13.63;9.70;;;;;;;13.40;35.91;98021.50;5045697;28;20227;-51
2022/03/21 09:18:47;;;;;;;11.37;8.93;;;;;;;13.78;37.34;98015.63;5042858;28;20207;-52
2022/03/21 09:21:14;;;;;;;15.17;8.87;;;;;;;14.02;35.77;98017.22;5042140;28;20213;-52
2022/03/21 09:23:41;;;;;;;13.07;10.60;;;;;;;13.94;35.95;98012.53;5043150;28;20239;-53
2022/03/21 09:26:10;;;;;;;11.07;9.97;;;;;;;14.68;36.50;98010.53;5043836;28;20208;-51
2022/03/21 09:28:39;;;;;;;13.20;10.50;;;;;;;15.14;36.40;98010.78;5043297;28;20195;-51
2022/03/21 09:31:06;;;;;;;10.97;9.87;;;;;;;15.61;34.51;98009.19;5043042;28;20732;-52
2022/03/21 09:33:33;;;;;;;14.37;10.30;;;;;;;15.61;34.14;98008.34;5051484;28;20660;-52
2022/03/21 09:36:00;;;;;;;11.70;9.83;;;;;;;15.52;32.55;98007.34;5055971;28;20203;-52
2022/03/21 09:38:27;;;;;;;15.13;9.03;;;;;;;15.70;32.55;97996.81;5045363;28;20204;-52
2022/03/21 09:40:56;;;;;;;11.00;9.30;;;;;;;15.47;31.57;97993.56;5043415;28;20206;-53
2022/03/21 09:43:24;;;;;;;10.57;9.47;;;;;;;16.18;33.12;97996.72;5026221;28;20204;-52
2022/03/21 09:45:57;;;;;;;10.30;9.30;;;;;;;16.42;32.36;97995.25;5043226;28;20223;-53
2022/03/21 09:48:25;;;;;;;9.88;8.68;;;;;;;16.57;31.71;97992.97;5042815;28;20215;-51
2022/03/21 09:50:54;;;;;;;9.77;8.93;;;;;;;16.46;31.39;97994.94;5042785;28;20671;-53
2022/03/21 09:53:21;;;;;;;12.45;9.13;;;;;;;16.49;30.61;97986.63;5042551;28;20199;-53
2022/03/21 09:55:49;;;;;;;12.32;9.35;;;;;;;16.83;30.90;97985.06;5043664;28;20203;-52
2022/03/21 09:58:17;;;;;;;10.98;9.25;;;;;;;17.40;30.57;97981.16;5045029;28;20199;-53
2022/03/21 10:00:44;;;;;;;9.60;8.55;;;;;;;17.42;28.60;97981.88;5044848;28;20200;-53
2022/03/21 10:03:15;;;;;;;9.98;8.90;;;;;;;17.46;29.97;97977.91;5047774;28;20198;-53
2022/03/21 10:05:43;;;;;;;11.02;9.93;;;;;;;17.53;28.89;97973.63;5044843;28;20199;-52
2022/03/21 10:08:14;;;;;;;11.55;9.20;;;;;;;17.83;30.11;97972.38;5043654;28;20210;-53
2022/03/21 10:10:41;;;;;;;11.38;8.80;;;;;;;18.12;29.79;97974.75;5043942;28;20219;-52
2022/03/21 10:13:11;;;;;;;11.13;9.77;;;;;;;18.34;28.62;97971.56;5044109;28;20200;-52
2022/03/21 10:15:38;;;;;;;9.80;8.80;;;;;;;18.48;28.35;97965.59;5043768;28;20531;-54
2022/03/21 10:18:07;;;;;;;10.65;9.38;;;;;;;17.96;27.81;97961.28;5041680;28;20521;-52
2022/03/21 10:20:39;;;;;;;10.40;9.23;;;;;;;18.22;28.68;97959.41;5042831;28;21355;-53
2022/03/21 10:23:22;;;;;;;12.38;10.23;;;;;;;17.97;27.69;97960.25;5043856;28;20230;-52
2022/03/21 10:25:51;;;;;;;13.48;10.30;;;;;;;17.73;26.64;97953.75;5041821;28;20241;-50
2022/03/21 10:28:34;;;;;;;11.82;9.25;;;;;;;17.92;26.81;97956.22;5042246;28;20205;-53
2022/03/21 10:31:02;;;;;;;12.23;9.98;;;;;;;18.19;27.99;97949.88;5042839;28;20242;-50
2022/03/21 10:33:29;;;;;;;11.88;9.48;;;;;;;18.36;27.78;97953.47;5042380;28;20199;-52
2022/03/21 10:36:07;;;;;;;11.07;9.85;;;;;;;18.32;28.33;97954.78;5041674;28;20208;-51
2022/03/21 10:38:35;;;;;;;11.05;9.98;;;;;;;17.92;27.55;97944.69;5042926;28;20191;-52
2022/03/21 10:41:10;;;;;;;11.32;10.15;;;;;;;18.14;27.05;97941.47;5041928;28;20221;-51
2022/03/21 10:43:38;;;;;;;10.98;9.88;;;;;;;18.52;28.84;97942.03;5042584;28;20272;-51
2022/03/21 10:46:09;;;;;;;11.13;9.85;;;;;;;18.54;29.15;97938.19;5041577;28;20208;-52
2022/03/21 10:48:36;;;;;;;10.95;9.95;;;;;;;19.14;28.19;97930.81;5041743;28;20220;-51
2022/03/21 10:51:04;;;;;;;11.18;10.07;;;;;;;19.68;25.92;97940.13;5041867;28;20308;-52
2022/03/21 10:53:33;;;;;;;10.70;9.70;;;;;;;18.99;28.01;97928.97;5042117;28;20199;-52
2022/03/21 10:56:02;;;;;;;10.75;9.65;;;;;;;19.06;26.46;97929.97;5041817;28;20203;-52
2022/03/21 10:58:33;;;;;;;10.68;9.57;;;;;;;19.87;25.51;97929.00;5042860;28;20533;-52
2022/03/21 11:01:10;;;;;;;10.90;9.90;;;;;;;19.94;25.80;97929.19;5054407;28;20206;-52
2022/03/21 11:03:40;;;;;;;10.68;9.70;;;;;;;20.34;24.17;97920.22;5064896;28;20183;-54
2022/03/21 11:06:09;;;;;;;12.25;10.32;;;;;;;19.63;25.34;97920.97;5064593;28;20271;-53
2022/03/21 11:08:36;;;;;;;11.20;10.13;;;;;;;19.71;25.74;97917.47;5043002;28;20219;-51
2022/03/21 11:11:03;;;;;;;11.45;10.32;;;;;;;19.53;26.80;97914.94;5043002;28;20223;-53
2022/03/21 11:13:30;;;;;;;12.32;10.77;;;;;;;19.07;25.50;97907.50;5042152;28;20559;-52
2022/03/21 11:15:57;;;;;;;11.82;10.65;;;;;;;18.67;25.66;97906.41;5042398;28;20208;-52
2022/03/21 11:18:24;;;;;;;11.57;10.48;;;;;;;18.64;26.76;97906.72;5041813;28;20214;-51
2022/03/21 11:20:51;;;;;;;12.02;10.90;;;;;;;18.41;25.95;97900.28;5042409;28;20211;-51
2022/03/21 11:23:19;;;;;;;12.65;11.35;;;;;;;18.17;27.14;97897.47;5041534;28;20231;-52
2022/03/21 11:25:48;;;;;;;16.58;12.32;;;;;;;18.30;28.66;97898.72;5042232;28;20222;-51
2022/03/21 11:28:37;;;;;;;14.07;12.65;;;;;;;18.24;27.52;97903.88;5045526;28;20203;-53
2022/03/21 11:31:25;;;;;;;13.75;12.40;;;;;;;18.03;26.69;97901.56;5045527;28;20226;-51
2022/03/21 11:34:04;;;;;;;14.43;13.02;;;;;;;17.74;27.54;97891.22;5046031;28;20257;-51
2022/03/21 11:36:31;;;;;;;14.40;12.98;;;;;;;17.68;27.53;97889.16;5045452;28;20183;-51
2022/03/21 11:39:17;;;;;;;17.05;13.15;;;;;;;17.61;27.79;97893.44;5044960;28;20199;-53
2022/03/21 11:41:57;;;;;;;14.43;12.70;;;;;;;17.74;28.78;97882.34;5045648;28;20191;-51
2022/03/21 11:44:25;;;;;;;15.25;13.55;;;;;;;17.95;28.70;97876.63;5045479;28;20210;-51
2022/03/21 11:46:52;;;;;;;15.07;13.48;;;;;;;18.13;27.70;97872.88;5046125;28;20207;-51
2022/03/21 11:49:46;;;;;;;14.90;13.40;;;;;;;17.96;27.44;97870.28;5045521;28;20203;-52
2022/03/21 11:52:13;;;;;;;14.50;13.07;;;;;;;17.60;28.99;97869.53;5044331;28;20550;-51
2022/03/21 11:54:42;;;;;;;15.80;13.40;;;;;;;17.55;28.23;97869.97;5044721;28;20191;-52
2022/03/21 11:57:11;;;;;;;14.57;12.68;;;;;;;17.74;28.98;97861.78;5044964;28;20209;-52
2022/03/21 12:00:00;;;;;;;17.67;13.57;;;;;;;17.81;29.95;97852.13;5045182;28;20308;-52